Terminal Aerodrome Forecast
Issued by NWS Twin Cities, MN

Home | Current Version | Previous Version | Text Only | Print | Product List | Glossary Off
Versions: 1 2 3 4 5 6 7 8 9 10 11 12 13 14 15 16 17 18 19 20 21 22 23 24 25 26 27 28

000
FTUS43 KMPX 210800 AAA
TAFMSP
TAF AMD
KMSP 210856Z 2109/2212 14007KT P6SM BKN040
     FM211400 15011KT P6SM FEW040 SCT150
     FM220600 14008KT P6SM SCT040 BKN150=

USA.gov is the U.S. government's official web portal to all federal, state and local government web resources and services.